Hauptseite
METAR-TAF:

METAR-TAF

Flughäfen :

Heringsdorf, Deutschland

Flughafen Heringsdorf

Breite: 53-53N, Länge: 014-09E, Höhe: 28 m

Beobachtung

Neuester Wetterbericht von vor 9 Stunden und 19 Minuten, um 15:20 UTC
Wind 10 kt aus Südwest
Temperatur 10°C
Luftfeuchtigkeit 43%
Luftdruck 1014 hPa
Sichtweite 10 km oder mehr
keine Wolken unter 1500 m und keine Kumulonimbus oder Gewitterwolken

METAR: EDAH 271520Z 23010KT CAVOK 10/M02 Q1014

Zeit: 02:39 (00:39 UTC)

Prognose

Neuester Wetterbericht von vor 10 Stunden und 39 Minuten, um 14:00 UTC
Gültige Prognose vom 27 um 15 UTC bis 27 um 24 UTC
Wind 6 kt aus West/Südwest
Sichtweite 10 km oder mehr
keine Wolken unter 1500 m und keine Kumulonimbus oder Gewitterwolken
Übergehend zu
vom 27 um 15 UTC bis 27 um 18 UTC
Wind 4 kt aus Süd/Südost

TAF: EDAH 271400Z 2715/2724 24006KT CAVOK BECMG 2715/2718 15004KT

Wetterbeobachtungen und Prognosen von mehr als 4000 Flughäfen (METAR und TAF Bericht).

Die verfügbaren Stationen werden durch gelbe und rote Markierungen auf der Karte dargestellt.

Führen Sie die Maus auf sie, um den Namen der Station zu sehen.

Darauf klicken, um die Beobachtung von Wetterbeobachtungen und Prognosen zu sehen.

Um die Karte zu ändern : klicken Sie auf den grünen Tasten mit einem schwarzen Kreuz Zum Vergrößern, auf den grünen Button mit einem Gedankenstrich zu verkleinern, oder auf die grünen Pfeile für benachbarte Karten.


METAR-TAF: